CST,Max TemperatureF,Mean TemperatureF,Min TemperatureF,Max Dew PointF,MeanDew PointF,Min DewpointF,Max Humidity, Mean Humidity, Min Humidity, Max Sea Level PressureIn, Mean Sea Level PressureIn, Min Sea Level PressureIn, Max VisibilityMiles, Mean VisibilityMiles, Min VisibilityMiles, Max Wind SpeedMPH, Mean Wind SpeedMPH, Max Gust SpeedMPH,PrecipitationIn, CloudCover, Events, WindDirDegrees
2011-11-1,71,55,39,37,30,27,70,43,20,30.29,30.23,30.17,10,10,3,12,3,17,0.00,0,,156
2011-11-2,71,56,42,46,37,30,70,46,31,30.26,30.17,30.08,10,10,5,13,6,20,0.00,0,,168
2011-11-3,62,53,44,50,38,34,77,64,44,30.03,29.94,29.85,10,9,3,23,14,31,0.35,7,,245
2011-11-4,53,50,46,43,42,39,82,73,67,30.24,30.17,30.05,10,8,3,12,8,18,0.00,8,,352
2011-11-5,64,50,35,45,39,30,82,67,45,30.25,30.18,30.10,10,6,0,8,3,,0.00,2,,114
2011-11-6,64,56,48,45,39,32,71,52,40,30.28,30.22,30.14,10,10,10,17,8,25,0.00,4,,150
2011-11-7,75,67,59,54,49,46,63,55,47,30.28,30.21,30.14,10,10,10,13,8,17,0.00,4,,158
2011-11-8,75,66,57,55,50,45,67,56,47,30.13,30.03,29.90,10,10,10,16,8,26,0.00,3,,162
2011-11-9,69,55,41,59,42,30,78,61,44,30.24,30.05,29.84,10,10,10,21,12,29,0.08,5,,266
2011-11-10,53,44,35,32,25,19,81,50,26,30.29,30.24,30.19,10,10,7,20,6,29,0.00,0,,289
2011-11-11,66,47,28,34,25,19,75,46,26,30.22,30.13,30.03,10,10,10,16,4,25,0.00,0,,196
2011-11-12,64,54,44,45,37,28,58,51,43,30.13,30.05,29.94,10,10,10,15,8,25,0.00,0,,177
2011-11-13,73,66,60,55,51,45,60,54,50,29.91,29.84,29.77,10,10,10,24,13,39,0.00,6,,195
2011-11-14,77,73,69,61,57,54,64,58,53,29.87,29.82,29.77,10,10,10,17,11,26,0.00,5,,198
2011-11-15,60,58,57,54,52,52,88,81,72,29.91,29.86,29.80,10,8,1,10,5,,1.75,8,,93
2011-11-16,57,50,44,54,38,19,88,61,37,30.24,29.99,29.79,10,10,5,18,10,26,0.99,7,Thunderstorm,12
2011-11-17,48,42,37,25,20,18,56,41,30,30.41,30.35,30.25,10,10,10,12,6,18,0.00,2,,342
2011-11-18,55,42,30,28,22,18,75,45,25,30.38,30.28,30.14,10,10,10,12,4,18,0.00,0,,154
2011-11-19,69,56,44,48,40,28,62,54,43,30.15,30.08,30.01,10,10,10,15,9,26,0.00,4,,164
2011-11-20,66,62,57,61,56,50,83,78,68,30.16,30.13,30.07,10,6,1,12,7,21,0.23,8,Thunderstorm,170
2011-11-21,66,58,51,61,54,46,88,82,77,30.18,30.12,30.01,10,5,0,12,5,23,0.28,8,Thunderstorm,70
2011-11-22,66,58,51,59,52,41,83,76,64,30.12,29.92,29.75,10,8,0,25,9,34,0.38,7,Thunderstorm,238
2011-11-23,51,48,46,43,40,37,76,71,62,30.37,30.27,30.12,10,10,8,13,7,16,0.00,8,,6
2011-11-24,51,46,41,43,39,36,81,76,67,30.41,30.36,30.31,10,6,0,8,3,,0.00,6,,140
2011-11-25,66,50,35,45,38,30,87,60,37,30.27,30.18,30.08,10,9,0,15,5,23,0.00,0,,162
2011-11-26,71,63,55,54,49,39,82,63,50,30.09,29.97,29.86,10,10,8,17,9,29,0.54,7,,164
2011-11-27,57,48,39,52,36,32,82,76,70,30.10,30.02,29.88,10,8,2,14,10,21,0.65,8,,341
2011-11-28,39,36,33,30,29,27,75,74,70,30.05,29.92,29.80,10,7,1,16,12,24,0.35,8,,328
2011-11-29,39,36,33,28,27,27,81,72,61,30.12,29.91,29.73,10,7,2,15,10,23,0.41,8,,304
2011-11-30,44,36,28,27,23,19,75,59,43,30.25,30.20,30.13,10,10,9,7,4,,0.00,0,,308